Falfurrias, Brooks County Airport (KBKS)

NameBrooks County Airport
CityFalfurrias
CountryUnited States
ICAOKBKS
IATA
Altitude34 m
CoordinatesGoogle Map
Live Air TrafficLiveATC.net
METARKBKS 151155Z AUTO 00000KT 5SM BKN065 26/25 A2985 RMK AO1 T02620250 10271 20260
2018-10-15 11:55:00 Wind: North (0°) 0 m/s - Visibility: 8046.7 m - Temperature: 26 °C - Dew point: 25 °C - Humidity: 94.2% - Pressure: 1010.84 hPa
Statistics

The table below shows the detailed information of all flights to/from Falfurrias, Brooks County Airport (KBKS).